createdAt,value
2018-04-19T00:00:17.176Z,99.90
2018-04-19T00:02:44.645Z,99.90
2018-04-19T00:05:12.106Z,99.90
2018-04-19T00:07:39.579Z,99.90
2018-04-19T00:10:07.090Z,99.90
2018-04-19T00:12:34.558Z,99.90
2018-04-19T00:15:02.057Z,99.90
2018-04-19T00:17:29.525Z,99.90
2018-04-19T00:19:57.015Z,99.90
2018-04-19T00:22:24.523Z,99.90
2018-04-19T00:24:51.993Z,99.90
2018-04-19T00:27:19.482Z,99.90
2018-04-19T00:29:46.940Z,99.90
2018-04-19T00:32:14.430Z,99.90
2018-04-19T00:34:41.905Z,99.90
2018-04-19T00:37:09.376Z,99.90
2018-04-19T00:39:36.852Z,99.90
2018-04-19T00:42:04.328Z,99.90
2018-04-19T00:44:31.794Z,99.90
2018-04-19T00:46:59.284Z,99.90
2018-04-19T00:49:26.763Z,99.90
2018-04-19T00:51:54.254Z,99.90
2018-04-19T00:54:21.729Z,99.90
2018-04-19T00:56:49.212Z,99.90
2018-04-19T00:59:16.673Z,99.90
2018-04-19T01:01:44.933Z,99.90
2018-04-19T01:04:12.401Z,99.90
2018-04-19T01:06:39.863Z,99.90
2018-04-19T01:09:08.105Z,99.90
2018-04-19T01:11:35.602Z,99.90
2018-04-19T01:14:03.866Z,99.90
2018-04-19T01:16:31.349Z,99.90
2018-04-19T01:18:58.877Z,99.90
2018-04-19T01:21:26.353Z,99.90
2018-04-19T01:23:54.599Z,99.90
2018-04-19T01:26:22.057Z,99.90
2018-04-19T01:28:49.535Z,99.90
2018-04-19T01:31:17.783Z,99.90
2018-04-19T01:33:45.240Z,99.90
2018-04-19T01:36:24.396Z,99.90
2018-04-19T01:38:51.862Z,99.90
2018-04-19T01:41:20.110Z,99.90
2018-04-19T01:43:47.590Z,99.90
2018-04-19T01:46:15.814Z,99.90
2018-04-19T01:48:43.278Z,99.90
2018-04-19T01:51:10.735Z,99.90
2018-04-19T01:53:38.215Z,99.90
2018-04-19T01:56:05.670Z,99.90
2018-04-19T01:58:33.151Z,99.90
2018-04-19T02:01:01.396Z,99.90
2018-04-19T02:03:28.898Z,99.90
2018-04-19T02:05:56.353Z,99.90
2018-04-19T02:08:23.831Z,99.90
2018-04-19T02:10:51.288Z,99.90
2018-04-19T02:13:18.767Z,99.90
2018-04-19T02:15:46.240Z,99.90
2018-04-19T02:18:13.733Z,99.90
2018-04-19T02:20:41.192Z,99.90
2018-04-19T02:23:08.649Z,99.90
2018-04-19T02:25:36.100Z,99.90
2018-04-19T02:28:04.369Z,99.90
2018-04-19T02:30:32.604Z,99.90
2018-04-19T02:33:00.209Z,99.90
2018-04-19T02:35:28.434Z,99.90
2018-04-19T02:37:55.906Z,99.90
2018-04-19T02:40:23.382Z,99.90
2018-04-19T02:42:50.849Z,99.90
2018-04-19T02:45:18.317Z,99.90
2018-04-19T02:47:46.548Z,99.90
2018-04-19T02:50:14.013Z,99.90
2018-04-19T02:52:41.472Z,99.90
2018-04-19T02:55:08.942Z,99.90
2018-04-19T02:57:36.411Z,99.90
2018-04-19T03:00:03.979Z,99.90
2018-04-19T03:02:32.213Z,99.90
2018-04-19T03:04:59.672Z,99.90
2018-04-19T03:07:27.147Z,99.90
2018-04-19T03:09:54.607Z,99.90
2018-04-19T03:12:22.094Z,99.90
2018-04-19T03:14:50.322Z,99.90
2018-04-19T03:17:17.816Z,99.90
2018-04-19T03:19:46.060Z,99.90
2018-04-19T03:22:13.525Z,99.90
2018-04-19T03:24:40.989Z,99.90
2018-04-19T03:27:08.471Z,99.90
2018-04-19T03:29:35.933Z,99.90
2018-04-19T03:32:04.177Z,99.90
2018-04-19T03:34:31.721Z,99.90
2018-04-19T03:36:59.222Z,99.90
2018-04-19T03:39:26.701Z,99.90
2018-04-19T03:41:54.189Z,99.90
2018-04-19T03:44:21.670Z,99.90
2018-04-19T03:46:49.966Z,99.90
2018-04-19T03:49:17.492Z,99.90
2018-04-19T03:51:44.968Z,99.90
2018-04-19T03:54:12.475Z,99.90
2018-04-19T03:56:39.936Z,99.90
2018-04-19T03:59:07.393Z,99.90
2018-04-19T04:01:35.218Z,99.90
2018-04-19T04:04:04.675Z,99.90
2018-04-19T04:06:32.145Z,99.90
2018-04-19T04:08:59.617Z,99.90
2018-04-19T04:11:27.885Z,99.90
2018-04-19T04:13:55.378Z,99.90
2018-04-19T04:16:34.648Z,99.90
2018-04-19T04:19:13.911Z,99.90
2018-04-19T04:24:51.035Z,99.90
2018-04-19T04:27:18.511Z,99.90
2018-04-19T04:29:46.010Z,99.90
2018-04-19T04:32:13.498Z,99.90
2018-04-19T04:34:41.773Z,99.90
2018-04-19T04:37:09.581Z,99.90
2018-04-19T04:39:37.060Z,99.90
2018-04-19T04:42:04.541Z,99.90
2018-04-19T04:44:32.040Z,99.90
2018-04-19T04:46:59.505Z,99.90
2018-04-19T04:49:26.992Z,99.90
2018-04-19T04:51:54.527Z,99.90
2018-04-19T04:54:22.002Z,99.90
2018-04-19T04:56:49.468Z,99.90
2018-04-19T04:59:16.924Z,99.90
2018-04-19T05:01:44.417Z,99.90
2018-04-19T05:04:11.895Z,99.90
2018-04-19T05:06:39.376Z,99.90
2018-04-19T05:09:06.885Z,99.90
2018-04-19T05:11:35.248Z,99.90
2018-04-19T05:14:02.735Z,99.90
2018-04-19T05:16:30.193Z,99.90
2018-04-19T05:18:59.368Z,99.90
2018-04-19T05:21:26.850Z,99.90
2018-04-19T05:23:54.310Z,99.90
2018-04-19T05:26:21.786Z,99.90
2018-04-19T05:28:49.258Z,99.90
2018-04-19T05:31:16.742Z,99.90
2018-04-19T05:33:44.204Z,99.90
2018-04-19T05:36:12.448Z,99.90
2018-04-19T05:38:39.935Z,99.90
2018-04-19T05:41:07.398Z,99.90
2018-04-19T05:43:34.876Z,99.90
2018-04-19T05:46:02.349Z,99.90
2018-04-19T05:48:29.836Z,99.90
2018-04-19T05:50:57.338Z,99.90
2018-04-19T05:53:24.901Z,99.90
2018-04-19T05:55:52.365Z,99.90
2018-04-19T05:58:19.822Z,99.90
2018-04-19T06:00:47.334Z,99.90
2018-04-19T06:03:14.784Z,99.90
2018-04-19T06:05:42.280Z,99.90
2018-04-19T06:08:09.750Z,99.90
2018-04-19T06:10:37.236Z,99.90
2018-04-19T06:13:04.714Z,99.90
2018-04-19T06:15:32.191Z,99.90
2018-04-19T06:17:59.659Z,99.90
2018-04-19T06:20:27.896Z,99.90
2018-04-19T06:22:55.395Z,99.90
2018-04-19T06:25:22.858Z,99.90
2018-04-19T06:27:50.328Z,99.90
2018-04-19T06:30:17.837Z,99.90
2018-04-19T06:32:46.120Z,99.90
2018-04-19T06:35:13.598Z,99.90
2018-04-19T06:37:41.845Z,99.90
2018-04-19T06:40:09.300Z,99.90
2018-04-19T06:42:36.761Z,99.90
2018-04-19T06:45:04.250Z,99.90
2018-04-19T06:47:31.717Z,99.90
2018-04-19T06:49:59.184Z,99.90
2018-04-19T06:52:26.674Z,99.90
2018-04-19T06:54:54.139Z,99.90
2018-04-19T06:57:21.744Z,99.90
2018-04-19T06:59:49.229Z,99.90
2018-04-19T07:02:16.708Z,99.90
2018-04-19T07:04:44.210Z,99.90
2018-04-19T07:07:11.718Z,99.90
2018-04-19T07:09:39.249Z,99.90
2018-04-19T07:12:06.782Z,99.90
2018-04-19T07:14:35.902Z,99.90
2018-04-19T07:17:03.533Z,99.90
2018-04-19T07:19:32.783Z,99.90
2018-04-19T07:22:00.252Z,99.90
2018-04-19T07:24:27.743Z,99.90
2018-04-19T07:26:55.969Z,99.90
2018-04-19T07:29:23.432Z,99.90
2018-04-19T07:31:50.933Z,99.90
2018-04-19T07:34:19.216Z,99.90
2018-04-19T07:36:46.737Z,99.90
2018-04-19T07:39:14.228Z,99.90
2018-04-19T07:41:41.731Z,99.90
2018-04-19T07:44:09.210Z,99.90
2018-04-19T07:46:36.678Z,99.90
2018-04-19T07:49:04.168Z,99.90
2018-04-19T07:51:31.674Z,99.90
2018-04-19T07:53:59.119Z,99.90
2018-04-19T07:56:26.596Z,99.90
2018-04-19T07:58:54.065Z,99.90
2018-04-19T08:01:21.541Z,99.90
2018-04-19T08:03:49.819Z,99.90
2018-04-19T08:06:17.274Z,99.90
2018-04-19T08:08:45.523Z,99.90
2018-04-19T08:11:13.033Z,99.90
2018-04-19T08:13:40.558Z,99.90
2018-04-19T08:16:08.021Z,99.90
2018-04-19T08:18:35.484Z,99.90
2018-04-19T08:21:02.945Z,99.90
2018-04-19T08:23:30.423Z,99.90
2018-04-19T08:25:57.879Z,99.90
2018-04-19T08:28:25.373Z,99.90
2018-04-19T08:30:52.935Z,99.90
2018-04-19T08:33:20.403Z,99.90
2018-04-19T08:35:47.880Z,99.90
2018-04-19T08:38:15.402Z,99.90
2018-04-19T08:40:42.844Z,99.90
2018-04-19T08:43:10.312Z,99.90
2018-04-19T08:45:37.803Z,99.90
2018-04-19T08:48:05.987Z,99.90
2018-04-19T08:50:33.445Z,99.90
2018-04-19T08:53:00.967Z,99.90
2018-04-19T08:55:28.458Z,99.90
2018-04-19T08:57:55.929Z,99.90
2018-04-19T09:00:23.392Z,99.90
2018-04-19T09:02:50.877Z,99.90
2018-04-19T09:05:18.414Z,99.90
2018-04-19T09:07:46.010Z,99.90
2018-04-19T09:10:13.484Z,99.90
2018-04-19T09:12:41.043Z,99.90
2018-04-19T09:15:08.547Z,99.90
2018-04-19T09:17:36.958Z,99.90
2018-04-19T09:20:04.500Z,99.90
2018-04-19T09:22:34.959Z,99.90
2018-04-19T09:25:02.456Z,99.90
2018-04-19T09:27:29.989Z,99.90
2018-04-19T09:29:57.553Z,99.90
2018-04-19T09:32:25.067Z,99.90
2018-04-19T09:34:52.635Z,99.40
2018-04-19T09:37:20.137Z,99.90
2018-04-19T09:39:48.454Z,99.90
2018-04-19T09:42:15.984Z,99.90
2018-04-19T09:44:43.497Z,98.10
2018-04-19T09:47:11.003Z,99.10
2018-04-19T09:49:38.561Z,98.40
2018-04-19T09:52:10.738Z,99.50
2018-04-19T09:54:38.765Z,99.50
2018-04-19T09:57:09.033Z,97.70
2018-04-19T09:59:36.522Z,98.80
2018-04-19T10:02:04.099Z,97.70
2018-04-19T10:04:33.380Z,98.30
2018-04-19T10:07:00.871Z,98.70
2018-04-19T10:09:28.387Z,97.90
2018-04-19T10:11:55.942Z,98.50
2018-04-19T10:14:24.203Z,98.30
2018-04-19T10:16:51.692Z,96.90
2018-04-19T10:19:19.202Z,96.40
2018-04-19T10:21:46.724Z,95.90
2018-04-19T10:24:14.246Z,94.70
2018-04-19T10:26:41.757Z,94.50
2018-04-19T10:29:09.262Z,94.20
2018-04-19T10:31:38.605Z,94.50
2018-04-19T10:34:06.099Z,94.10
2018-04-19T10:36:33.561Z,94.60
2018-04-19T10:39:01.080Z,94.40
2018-04-19T10:41:28.614Z,93.60
2018-04-19T10:43:56.127Z,94.40
2018-04-19T10:46:24.403Z,94.30
2018-04-19T10:48:52.682Z,93.80
2018-04-19T10:51:20.938Z,93.80
2018-04-19T10:53:48.484Z,93.80
2018-04-19T10:56:15.972Z,93.30
2018-04-19T10:58:43.458Z,94.10
2018-04-19T11:01:12.090Z,93.00
2018-04-19T11:03:39.585Z,93.20
2018-04-19T11:06:07.062Z,92.50
2018-04-19T11:08:34.584Z,92.80
2018-04-19T11:11:02.821Z,92.20
2018-04-19T11:13:30.326Z,92.20
2018-04-19T11:15:57.825Z,90.70
2018-04-19T11:18:25.295Z,90.00
2018-04-19T11:20:52.857Z,88.80
2018-04-19T11:23:20.358Z,87.60
2018-04-19T11:25:47.857Z,86.40
2018-04-19T11:28:15.354Z,86.80
2018-04-19T11:30:44.180Z,84.80
2018-04-19T11:33:12.435Z,83.60
2018-04-19T11:35:40.688Z,81.80
2018-04-19T11:38:08.319Z,81.70
2018-04-19T11:40:35.809Z,82.50
2018-04-19T11:43:03.270Z,86.00
2018-04-19T11:45:30.742Z,85.40
2018-04-19T11:47:58.996Z,86.30
2018-04-19T11:50:26.478Z,86.40
2018-04-19T11:52:53.951Z,82.10
2018-04-19T11:55:21.442Z,82.50
2018-04-19T11:57:49.021Z,82.50
2018-04-19T12:00:16.516Z,82.60
2018-04-19T12:02:43.976Z,82.20
2018-04-19T12:05:11.528Z,80.00
2018-04-19T12:07:39.311Z,78.90
2018-04-19T12:10:06.796Z,79.70
2018-04-19T12:12:34.296Z,80.30
2018-04-19T12:15:02.554Z,81.20
2018-04-19T12:17:30.794Z,81.10
2018-04-19T12:19:58.394Z,80.60
2018-04-19T12:22:25.884Z,80.00
2018-04-19T12:24:53.373Z,79.90
2018-04-19T12:27:20.849Z,77.10
2018-04-19T12:29:50.185Z,74.60
2018-04-19T12:32:17.799Z,77.20
2018-04-19T12:34:48.308Z,76.00
2018-04-19T12:37:17.856Z,80.80
2018-04-19T12:39:46.267Z,78.90
2018-04-19T12:42:16.700Z,78.50
2018-04-19T12:44:45.018Z,78.50
2018-04-19T12:47:12.637Z,74.60
2018-04-19T12:49:40.258Z,77.10
2018-04-19T12:52:07.772Z,75.00
2018-04-19T12:54:35.440Z,74.10
2018-04-19T12:57:05.172Z,78.20
2018-04-19T12:59:37.180Z,77.60
2018-04-19T13:02:04.697Z,77.60
2018-04-19T13:04:32.190Z,75.40
2018-04-19T13:07:02.358Z,77.70
2018-04-19T13:09:29.869Z,77.60
2018-04-19T13:11:58.128Z,76.10
2018-04-19T13:14:25.790Z,76.00
2018-04-19T13:16:53.276Z,74.30
2018-04-19T13:19:20.771Z,74.60
2018-04-19T13:21:48.225Z,75.60
2018-04-19T13:24:15.684Z,76.70
2018-04-19T13:26:43.144Z,76.60
2018-04-19T13:29:10.596Z,76.70
2018-04-19T13:31:38.100Z,77.50
2018-04-19T13:34:06.332Z,77.00
2018-04-19T13:36:33.809Z,77.00
2018-04-19T13:39:01.272Z,77.20
2018-04-19T13:41:28.790Z,76.00
2018-04-19T13:43:56.261Z,75.70
2018-04-19T13:46:23.817Z,76.00
2018-04-19T13:48:51.300Z,73.30
2018-04-19T13:51:18.798Z,74.40
2018-04-19T13:53:46.278Z,75.20
2018-04-19T13:56:13.752Z,74.80
2018-04-19T13:58:41.287Z,74.20
2018-04-19T14:01:08.744Z,73.80
2018-04-19T14:03:36.196Z,73.50
2018-04-19T14:06:03.668Z,74.40
2018-04-19T14:08:31.156Z,75.40
2018-04-19T14:10:58.654Z,74.90
2018-04-19T14:13:26.377Z,74.10
2018-04-19T14:15:53.822Z,73.30
2018-04-19T14:18:21.287Z,70.50
2018-04-19T14:20:48.774Z,73.20
2018-04-19T14:23:16.238Z,73.40
2018-04-19T14:25:43.744Z,75.60
2018-04-19T14:28:11.237Z,75.10
2018-04-19T14:30:38.748Z,74.40
2018-04-19T14:33:06.237Z,73.10
2018-04-19T14:35:33.728Z,72.80
2018-04-19T14:38:01.189Z,73.20
2018-04-19T14:40:28.703Z,74.60
2018-04-19T14:42:56.186Z,74.80
2018-04-19T14:45:23.919Z,74.00
2018-04-19T14:47:51.421Z,73.50
2018-04-19T14:50:19.693Z,73.00
2018-04-19T14:52:48.003Z,74.30
2018-04-19T14:55:15.518Z,74.30
2018-04-19T14:57:43.030Z,74.60
2018-04-19T15:00:10.549Z,74.70
2018-04-19T15:02:38.819Z,73.20
2018-04-19T15:05:07.065Z,74.40
2018-04-19T15:07:34.568Z,74.40
2018-04-19T15:10:02.056Z,74.00
2018-04-19T15:12:29.532Z,74.30
2018-04-19T15:14:57.009Z,75.00
2018-04-19T15:17:24.491Z,74.30
2018-04-19T15:19:51.950Z,73.60
2018-04-19T15:22:19.465Z,74.70
2018-04-19T15:24:46.975Z,75.40
2018-04-19T15:27:14.454Z,74.10
2018-04-19T15:29:41.932Z,74.90
2018-04-19T15:32:09.403Z,77.20
2018-04-19T15:34:36.955Z,77.10
2018-04-19T15:37:04.413Z,78.00
2018-04-19T15:39:31.949Z,77.00
2018-04-19T15:41:59.455Z,76.20
2018-04-19T15:44:27.770Z,75.50
2018-04-19T15:46:55.303Z,75.40
2018-04-19T15:49:23.587Z,77.80
2018-04-19T15:51:51.069Z,77.70
2018-04-19T15:54:18.580Z,76.20
2018-04-19T15:56:48.008Z,76.70
2018-04-19T15:59:15.509Z,76.60
2018-04-19T16:01:43.061Z,75.50
2018-04-19T16:04:10.625Z,76.50
2018-04-19T16:06:38.117Z,74.80
2018-04-19T16:09:06.332Z,75.60
2018-04-19T16:11:33.846Z,75.20
2018-04-19T16:14:01.377Z,74.50
2018-04-19T16:16:29.953Z,73.90
2018-04-19T16:18:57.681Z,74.40
2018-04-19T16:21:25.889Z,74.10
2018-04-19T16:23:53.389Z,74.10
2018-04-19T16:26:20.842Z,74.50
2018-04-19T16:28:48.620Z,73.40
2018-04-19T16:31:15.816Z,72.10
2018-04-19T16:33:43.293Z,71.60
2018-04-19T16:36:10.766Z,72.00
2018-04-19T16:38:39.060Z,70.40
2018-04-19T16:41:06.529Z,70.40
2018-04-19T16:43:34.124Z,70.10
2018-04-19T16:46:01.631Z,70.10
2018-04-19T16:48:29.077Z,70.60
2018-04-19T16:50:57.324Z,70.30
2018-04-19T16:53:24.778Z,70.30
2018-04-19T16:55:52.270Z,69.50
2018-04-19T16:58:20.509Z,69.50
2018-04-19T17:00:47.968Z,69.50
2018-04-19T17:03:15.444Z,68.70
2018-04-19T17:05:42.929Z,69.00
2018-04-19T17:08:10.380Z,69.00
2018-04-19T17:10:37.833Z,69.10
2018-04-19T17:13:05.329Z,69.10
2018-04-19T17:15:32.874Z,69.70
2018-04-19T17:18:00.321Z,68.70
2018-04-19T17:20:27.808Z,68.90
2018-04-19T17:22:55.328Z,70.50
2018-04-19T17:25:23.566Z,69.70
2018-04-19T17:27:51.057Z,69.70
2018-04-19T17:30:19.439Z,70.90
2018-04-19T17:32:46.898Z,70.90
2018-04-19T17:35:14.372Z,71.70
2018-04-19T17:37:41.848Z,73.00
2018-04-19T17:40:09.345Z,72.90
2018-04-19T17:42:36.805Z,72.80
2018-04-19T17:45:04.268Z,74.50
2018-04-19T17:47:32.737Z,75.70
2018-04-19T17:50:00.199Z,75.10
2018-04-19T17:52:27.673Z,75.60
2018-04-19T17:54:55.158Z,75.90
2018-04-19T17:57:22.644Z,77.80
2018-04-19T17:59:50.112Z,76.50
2018-04-19T18:02:17.601Z,77.40
2018-04-19T18:04:45.109Z,77.80
2018-04-19T18:07:12.584Z,78.00
2018-04-19T18:09:41.065Z,78.50
2018-04-19T18:12:08.556Z,77.20
2018-04-19T18:14:36.808Z,77.60
2018-04-19T18:17:04.301Z,77.60
2018-04-19T18:19:31.796Z,77.70
2018-04-19T18:21:59.329Z,78.00
2018-04-19T18:24:26.806Z,78.80
2018-04-19T18:26:54.284Z,79.00
2018-04-19T18:29:21.748Z,79.40
2018-04-19T18:31:49.212Z,80.20
2018-04-19T18:34:16.672Z,80.40
2018-04-19T18:36:44.917Z,81.80
2018-04-19T18:39:12.400Z,81.70
2018-04-19T18:41:40.024Z,82.10
2018-04-19T18:44:07.489Z,82.90
2018-04-19T18:46:34.978Z,83.30
2018-04-19T18:49:02.463Z,84.00
2018-04-19T18:51:30.355Z,84.70
2018-04-19T18:53:57.853Z,85.10
2018-04-19T18:56:25.332Z,85.80
2018-04-19T18:58:52.807Z,86.60
2018-04-19T19:01:20.291Z,87.10
2018-04-19T19:03:47.747Z,87.70
2018-04-19T19:06:15.311Z,88.60
2018-04-19T19:08:42.828Z,89.20
2018-04-19T19:11:10.313Z,89.80
2018-04-19T19:13:37.796Z,90.30
2018-04-19T19:16:08.050Z,90.70
2018-04-19T19:18:47.352Z,91.00
2018-04-19T19:21:14.838Z,91.30
2018-04-19T19:23:42.318Z,91.50
2018-04-19T19:26:09.944Z,91.80
2018-04-19T19:28:37.466Z,92.20
2018-04-19T19:31:05.166Z,92.30
2018-04-19T19:33:32.923Z,92.70
2018-04-19T19:36:00.423Z,92.90
2018-04-19T19:38:27.972Z,93.20
2018-04-19T19:40:55.394Z,93.50
2018-04-19T19:43:22.929Z,93.90
2018-04-19T19:45:50.508Z,94.20
2018-04-19T19:48:18.003Z,94.20
2018-04-19T19:50:45.537Z,94.50
2018-04-19T19:53:13.187Z,94.80
2018-04-19T19:55:40.836Z,95.00
2018-04-19T19:58:09.662Z,95.20
2018-04-19T20:00:37.204Z,95.60
2018-04-19T20:03:04.760Z,95.90
2018-04-19T20:05:36.011Z,96.20
2018-04-19T20:08:09.001Z,96.70
2018-04-19T20:10:36.973Z,96.70
2018-04-19T20:13:07.908Z,96.80
2018-04-19T20:15:35.441Z,97.20
2018-04-19T20:18:02.968Z,97.30
2018-04-19T20:20:30.493Z,97.40
2018-04-19T20:23:02.269Z,98.00
2018-04-19T20:25:31.509Z,98.00
2018-04-19T20:27:59.030Z,98.30
2018-04-19T20:30:29.411Z,98.20
2018-04-19T20:32:56.959Z,98.50
2018-04-19T20:35:24.556Z,98.80
2018-04-19T20:37:52.123Z,99.00
2018-04-19T20:40:20.549Z,99.50
2018-04-19T20:42:48.047Z,99.40
2018-04-19T20:45:15.511Z,99.80
2018-04-19T20:47:43.001Z,99.90
2018-04-19T20:50:11.525Z,99.90
2018-04-19T20:52:39.075Z,99.90
2018-04-19T20:55:06.741Z,99.90
2018-04-19T20:57:34.280Z,99.90
2018-04-19T21:00:01.815Z,99.90
2018-04-19T21:02:29.348Z,99.90
2018-04-19T21:04:57.967Z,99.90
2018-04-19T21:07:25.456Z,99.90
2018-04-19T21:09:52.964Z,99.90
2018-04-19T21:12:20.687Z,99.90
2018-04-19T21:14:48.162Z,99.90
2018-04-19T21:17:16.434Z,99.90
2018-04-19T21:19:44.734Z,99.90
2018-04-19T21:22:12.217Z,99.90
2018-04-19T21:24:39.693Z,99.90
2018-04-19T21:27:07.192Z,99.90
2018-04-19T21:29:35.552Z,99.90
2018-04-19T21:32:03.076Z,99.90
2018-04-19T21:34:30.604Z,99.90
2018-04-19T21:36:58.104Z,99.90
2018-04-19T21:39:25.660Z,99.90
2018-04-19T21:41:55.126Z,99.90
2018-04-19T21:44:23.404Z,99.90
2018-04-19T21:46:50.953Z,99.90
2018-04-19T21:49:18.463Z,99.90
2018-04-19T21:51:45.987Z,99.90
2018-04-19T21:54:13.621Z,99.90
2018-04-19T21:56:41.094Z,99.90
2018-04-19T21:59:08.577Z,99.90
2018-04-19T22:01:36.069Z,99.90
2018-04-19T22:04:03.575Z,99.90
2018-04-19T22:06:31.080Z,99.90
2018-04-19T22:08:58.566Z,99.90
2018-04-19T22:11:26.070Z,99.90
2018-04-19T22:13:53.588Z,99.90
2018-04-19T22:16:21.844Z,99.90
2018-04-19T22:18:49.369Z,99.90
2018-04-19T22:21:16.851Z,99.90
2018-04-19T22:23:44.337Z,99.90
2018-04-19T22:26:12.626Z,99.90
2018-04-19T22:28:40.122Z,99.90
2018-04-19T22:31:07.716Z,99.90
2018-04-19T22:33:35.210Z,99.90
2018-04-19T22:36:02.724Z,99.90
2018-04-19T22:38:30.244Z,99.90
2018-04-19T22:40:57.739Z,99.90
2018-04-19T22:43:25.219Z,99.90
2018-04-19T22:45:52.761Z,99.90
2018-04-19T22:48:20.283Z,99.90
2018-04-19T22:50:47.765Z,99.90
2018-04-19T22:53:15.245Z,99.90
2018-04-19T22:55:43.523Z,99.90
2018-04-19T22:58:11.016Z,99.90
2018-04-19T23:00:38.522Z,99.90
2018-04-19T23:03:05.994Z,99.90
2018-04-19T23:05:34.267Z,99.90
2018-04-19T23:08:01.736Z,99.90
2018-04-19T23:10:29.210Z,99.90
2018-04-19T23:12:56.696Z,99.90
2018-04-19T23:15:24.196Z,99.90
2018-04-19T23:17:51.664Z,99.90
2018-04-19T23:20:19.152Z,99.90
2018-04-19T23:22:46.628Z,99.90
2018-04-19T23:25:14.120Z,99.90
2018-04-19T23:27:41.690Z,99.90
2018-04-19T23:30:09.221Z,99.90
2018-04-19T23:32:36.711Z,99.90
2018-04-19T23:35:04.226Z,99.90
2018-04-19T23:37:31.726Z,99.90
2018-04-19T23:39:59.261Z,99.90
2018-04-19T23:42:26.748Z,99.90
2018-04-19T23:44:54.284Z,99.90
2018-04-19T23:47:21.765Z,99.90
2018-04-19T23:49:49.293Z,99.90
2018-04-19T23:52:16.772Z,99.90
2018-04-19T23:54:44.374Z,99.90
2018-04-19T23:57:11.888Z,99.90
2018-04-19T23:59:39.398Z,99.90
